Portada
METAR-TAF:

METAR-TAF

Aeropuertos :

Aeropuerto de Esbjerg

Esbjerg, Dinamarca

latitud: 55-32N, longitud: 008-34E, altitud: 30 m

Observación

El informe se hizo hace 37 minutos, a las 01:50 UTC
Viento 21 kt del oeste con ráfagas de 32 kt
Temperatura 4°C
Humedad 81%
Presión 1003 hPa
Visibilidad 10 km o más

METAR: EKEB 030150Z AUTO 28021G32KT 9999 BKN026/// BKN050/// BKN075/// 04/01 Q1003

Hora: 04:27 (02:27 UTC)

Pronóstico

El informe se hizo hace 9 horas y 27 minutos, a las 17:00 UTC
Pronóstico válido del 02 a las 18 UTC al 02 a las 22 UTC
Viento 18 kt del oeste
Visibilidad 10 km o más
Cielo nuboso a una altura de 2000 ft
Temporalmente
del 02 a las 18 UTC al 02 a las 22 UTC
Viento 20 kt del oeste con ráfagas de 35 kt
Escasas nubes a una altura de 2000 ft, Cumulonimbus.

TAF: EKEB 021700Z 0218/0222 28018KT 9999 BKN020 TEMPO 0218/0222 28020G35KT FEW020CB

Observaciones y pronósticos meteorológicos de más de 4000 aeropuertos (mensajes METAR y TAF).

Los puntos amarillos y rojos representan las estaciones disponibles.

Ponga el ratón en el punto deseado para ver el nombre de la estación.

Haga clic para ver las observaciones y los pronósticos meteorológicos.

Para cambiar el mapa : haga clic en los botones verdes con una cruz de color negro para hacer un zoom, en el botón verde con un guión para alejar o en las flechas verdes para mapas adyacentes.


METAR-TAF: